Time;durP1;ratioP1;P1;durP2;ratioP2;P2;SDS_P1;SDS_P2;PMS_P1;PMS_P2;Temp;Humidity;BMP_temperature;BMP_pressure;BME280_temperature;BME280_humidity;BME280_pressure;Samples;Min_cycle;Max_cycle;Signal;HPM_P1;HPM_P2
2021/03/22 00:00:40;;;;;;;14.20;2.60;;;18.00;99.90;;;;;;5069346;28;20411;-81
2021/03/22 00:03:08;;;;;;;18.27;2.38;;;17.90;99.90;;;;;;5069084;28;20746;-82
2021/03/22 00:05:36;;;;;;;13.25;2.30;;;18.00;99.90;;;;;;5069348;28;20469;-81
2021/03/22 00:08:03;;;;;;;9.60;1.90;;;18.00;99.90;;;;;;5068422;28;20406;-81
2021/03/22 00:10:32;;;;;;;16.67;2.53;;;18.00;99.90;;;;;;5068607;28;20523;-81
2021/03/22 00:13:00;;;;;;;14.48;2.40;;;18.10;99.90;;;;;;5069372;28;20406;-81
2021/03/22 00:15:29;;;;;;;13.32;2.35;;;18.10;99.90;;;;;;5069348;28;20401;-81
2021/03/22 00:17:56;;;;;;;17.37;2.70;;;18.20;99.90;;;;;;5069230;28;20375;-82
2021/03/22 00:20:24;;;;;;;14.23;2.35;;;18.20;99.90;;;;;;5068473;28;20394;-81
2021/03/22 00:22:51;;;;;;;13.83;2.27;;;18.20;99.90;;;;;;5069576;28;20386;-81
2021/03/22 00:25:19;;;;;;;14.95;2.40;;;18.30;99.90;;;;;;5069542;28;20384;-82
2021/03/22 00:27:47;;;;;;;16.25;2.25;;;18.30;99.90;;;;;;5068799;28;20410;-81
2021/03/22 00:30:26;;;;;;;14.30;2.33;;;18.30;99.90;;;;;;5069766;28;20428;-81
2021/03/22 00:32:53;;;;;;;13.85;2.35;;;18.40;99.90;;;;;;5067182;28;20465;-81
2021/03/22 00:35:21;;;;;;;14.18;2.30;;;18.40;99.90;;;;;;5067761;28;20378;-81
2021/03/22 00:37:49;;;;;;;17.63;2.65;;;18.50;99.90;;;;;;5069131;28;20382;-81
2021/03/22 00:40:18;;;;;;;14.75;2.70;;;18.50;99.90;;;;;;5068782;28;20431;-81
2021/03/22 00:42:45;;;;;;;18.03;2.67;;;18.50;99.90;;;;;;5068935;28;20829;-82
2021/03/22 00:45:14;;;;;;;18.50;2.72;;;18.60;99.90;;;;;;5068814;28;20787;-82
2021/03/22 00:47:41;;;;;;;17.65;2.90;;;18.60;99.90;;;;;;5068723;28;20497;-82
2021/03/22 00:50:15;;;;;;;17.02;2.80;;;18.70;99.90;;;;;;5068140;28;20420;-81
2021/03/22 00:52:42;;;;;;;16.05;2.78;;;18.70;99.90;;;;;;5075467;28;20868;-82
2021/03/22 00:55:10;;;;;;;20.38;2.90;;;18.70;99.90;;;;;;5075682;28;20388;-83
2021/03/22 00:57:37;;;;;;;15.18;2.53;;;18.70;99.90;;;;;;5075262;28;20374;-82
2021/03/22 01:00:07;;;;;;;17.10;2.90;;;18.70;99.90;;;;;;5073659;28;20386;-82
2021/03/22 01:02:34;;;;;;;16.08;2.75;;;18.70;99.90;;;;;;5055100;28;20448;-83
2021/03/22 01:05:01;;;;;;;17.15;2.58;;;18.70;99.90;;;;;;5084959;28;20384;-82
2021/03/22 01:07:28;;;;;;;18.58;2.53;;;18.60;99.90;;;;;;5084339;28;20389;-84
2021/03/22 01:09:55;;;;;;;17.33;2.78;;;18.70;99.90;;;;;;5075030;28;20744;-84
2021/03/22 01:12:22;;;;;;;27.75;3.90;;;18.70;99.90;;;;;;5075065;28;20366;-83
2021/03/22 01:14:49;;;;;;;17.15;2.80;;;18.70;99.90;;;;;;5087878;28;20380;-84
2021/03/22 01:17:15;;;;;;;18.00;3.23;;;18.70;99.90;;;;;;5096119;28;20450;-84
2021/03/22 01:19:42;;;;;;;17.27;3.00;;;18.80;99.90;;;;;;5095617;28;20383;-82
2021/03/22 01:22:09;;;;;;;16.97;3.00;;;18.70;99.90;;;;;;5095025;28;20854;-82
2021/03/22 01:24:36;;;;;;;20.63;3.25;;;18.80;99.90;;;;;;5095613;28;20482;-84
2021/03/22 01:27:08;;;;;;;17.33;3.00;;;18.80;99.90;;;;;;5095076;28;20443;-84
2021/03/22 01:29:38;;;;;;;19.45;3.15;;;18.90;99.90;;;;;;5095214;28;20421;-84
2021/03/22 01:32:09;;;;;;;18.58;3.20;;;18.80;99.90;;;;;;5095107;28;20387;-85
2021/03/22 01:34:36;;;;;;;21.08;3.50;;;18.80;99.90;;;;;;5084699;28;20386;-85
2021/03/22 01:37:03;;;;;;;24.25;3.78;;;18.80;99.90;;;;;;5068011;28;20409;-84
2021/03/22 01:39:35;;;;;;;19.35;3.33;;;18.80;99.90;;;;;;5075495;28;20385;-86
2021/03/22 01:42:29;;;;;;;24.65;3.20;;;18.80;99.90;;;;;;5074757;28;20885;-86
2021/03/22 01:45:01;;;;;;;23.23;4.13;;;18.80;99.90;;;;;;5075801;28;20400;-86
2021/03/22 01:47:31;;;;;;;21.30;4.03;;;18.80;99.90;;;;;;5074389;28;21037;-86
2021/03/22 01:50:14;;;;;;;24.25;4.43;;;18.80;99.90;;;;;;5074729;28;20389;-86
2021/03/22 01:52:43;;;;;;;24.08;4.25;;;18.80;99.90;;;;;;5074306;28;20390;-86
2021/03/22 01:55:13;;;;;;;21.15;3.85;;;18.80;99.90;;;;;;5074472;28;20397;-86
2021/03/22 01:57:44;;;;;;;21.08;4.28;;;18.80;99.90;;;;;;5072532;28;20887;-85
2021/03/22 02:00:19;;;;;;;19.73;3.58;;;18.80;99.90;;;;;;5094518;28;20451;-85
2021/03/22 02:02:50;;;;;;;20.33;3.47;;;18.80;99.90;;;;;;5074130;28;20389;-85
2021/03/22 02:05:22;;;;;;;18.10;4.03;;;18.90;99.90;;;;;;5071546;28;20370;-84
2021/03/22 02:08:12;;;;;;;17.42;3.83;;;18.90;99.90;;;;;;5071362;28;20497;-87
2021/03/22 02:10:41;;;;;;;19.50;4.13;;;18.90;99.90;;;;;;5070832;28;20470;-86
2021/03/22 02:13:10;;;;;;;19.55;4.20;;;18.90;99.90;;;;;;5070276;28;20393;-84
2021/03/22 02:15:41;;;;;;;20.52;3.88;;;19.00;99.90;;;;;;5071250;28;20377;-85
2021/03/22 02:18:24;;;;;;;19.17;3.90;;;18.90;99.90;;;;;;5069755;28;20397;-86
2021/03/22 02:21:25;;;;;;;32.20;4.40;;;19.00;99.90;;;;;;5070767;28;20382;-85
2021/03/22 02:24:10;;;;;;;19.73;3.78;;;19.10;99.90;;;;;;5060512;28;20465;-85
2021/03/22 02:27:14;;;;;;;21.77;4.03;;;19.00;99.90;;;;;;5070434;28;20490;-84
2021/03/22 02:30:05;;;;;;;20.88;3.65;;;19.00;99.90;;;;;;5070642;28;20378;-86
2021/03/22 02:32:56;;;;;;;20.17;4.03;;;18.90;99.90;;;;;;5050731;28;20372;-86
2021/03/22 02:35:42;;;;;;;20.85;4.40;;;18.90;99.90;;;;;;5053544;28;20413;-86
2021/03/22 02:38:31;;;;;;;27.65;4.40;;;18.90;99.90;;;;;;5071365;28;20459;-85
2021/03/22 02:41:05;;;;;;;26.53;4.70;;;18.80;99.90;;;;;;5070440;28;20382;-85
2021/03/22 02:43:36;;;;;;;23.83;4.75;;;18.80;99.90;;;;;;5070180;28;20473;-84
2021/03/22 02:46:06;;;;;;;17.27;4.20;;;18.90;99.90;;;;;;5070675;28;20454;-85
2021/03/22 02:48:34;;;;;;;22.52;4.40;;;18.90;99.90;;;;;;5070839;28;20546;-85
2021/03/22 02:51:36;;;;;;;17.23;4.03;;;18.80;99.90;;;;;;5069869;28;20417;-84
2021/03/22 02:54:07;;;;;;;20.00;3.90;;;18.80;99.90;;;;;;5070775;28;20382;-84
2021/03/22 02:56:59;;;;;;;21.23;4.30;;;18.70;99.90;;;;;;5070425;28;20453;-84
2021/03/22 02:59:30;;;;;;;18.10;3.97;;;18.70;99.90;;;;;;5070575;28;20378;-84
2021/03/22 03:02:03;;;;;;;18.38;4.47;;;18.60;99.90;;;;;;5070424;28;20381;-84
2021/03/22 03:04:35;;;;;;;23.20;4.05;;;18.60;99.90;;;;;;5070486;28;20449;-85
2021/03/22 03:07:06;;;;;;;24.47;4.63;;;18.60;99.90;;;;;;5070183;28;20390;-83
2021/03/22 03:09:36;;;;;;;18.53;4.53;;;18.70;99.90;;;;;;5070348;28;20374;-84
2021/03/22 03:12:14;;;;;;;21.90;4.10;;;18.70;99.90;;;;;;5069977;28;20895;-85
2021/03/22 03:14:49;;;;;;;16.30;3.88;;;18.60;99.90;;;;;;5075839;28;20888;-85
2021/03/22 03:17:17;;;;;;;19.30;3.78;;;18.70;99.90;;;;;;5070436;28;20400;-85
2021/03/22 03:19:44;;;;;;;18.17;3.72;;;18.60;99.90;;;;;;5073593;28;20389;-87
2021/03/22 03:22:12;;;;;;;17.83;4.03;;;18.60;99.90;;;;;;5069974;28;20752;-86
2021/03/22 03:24:40;;;;;;;21.30;3.83;;;18.60;99.90;;;;;;5070352;28;20462;-86
2021/03/22 03:27:09;;;;;;;20.45;3.38;;;18.60;99.90;;;;;;5069874;28;20908;-86
2021/03/22 03:29:37;;;;;;;17.60;3.60;;;18.60;99.90;;;;;;5069371;28;20382;-84
2021/03/22 03:32:07;;;;;;;17.90;3.90;;;18.50;99.90;;;;;;5074716;28;20388;-85
2021/03/22 03:34:34;;;;;;;16.05;3.60;;;18.60;99.90;;;;;;5089798;28;20734;-85
2021/03/22 03:37:02;;;;;;;17.55;3.33;;;18.60;99.90;;;;;;5082832;28;20402;-85
2021/03/22 03:39:29;;;;;;;18.23;3.35;;;18.50;99.90;;;;;;5070082;28;20862;-86
2021/03/22 03:41:56;;;;;;;11.63;3.07;;;18.60;99.90;;;;;;5059574;28;20408;-86
2021/03/22 03:44:23;;;;;;;15.73;3.22;;;18.50;99.90;;;;;;5048622;28;20384;-86
2021/03/22 03:46:50;;;;;;;14.93;3.35;;;18.50;99.90;;;;;;5049679;28;20891;-85
2021/03/22 03:49:17;;;;;;;17.15;3.20;;;18.50;99.90;;;;;;5062130;28;20476;-84
2021/03/22 03:51:44;;;;;;;14.80;3.15;;;18.50;99.90;;;;;;5069154;28;20393;-85
2021/03/22 03:54:12;;;;;;;15.73;3.38;;;18.40;99.90;;;;;;5069362;28;20399;-85
2021/03/22 03:56:39;;;;;;;16.25;3.42;;;18.30;99.90;;;;;;5068877;28;20449;-84
2021/03/22 03:59:07;;;;;;;13.40;2.75;;;18.30;99.90;;;;;;5069269;28;20409;-85
2021/03/22 04:01:35;;;;;;;11.90;2.72;;;18.30;99.90;;;;;;5069481;28;20381;-86
2021/03/22 04:04:02;;;;;;;11.02;2.58;;;18.20;99.90;;;;;;5071111;28;20393;-85
2021/03/22 04:06:33;;;;;;;13.57;3.03;;;18.20;99.90;;;;;;5081427;28;20508;-87
2021/03/22 04:09:11;;;;;;;11.27;2.45;;;18.20;99.90;;;;;;5069093;28;20405;-83
2021/03/22 04:11:40;;;;;;;10.13;2.47;;;18.10;99.90;;;;;;5084004;28;20372;-86
2021/03/22 04:14:09;;;;;;;13.60;2.20;;;18.10;99.90;;;;;;5089810;28;20816;-88
2021/03/22 04:16:36;;;;;;;10.30;2.13;;;18.00;99.90;;;;;;5079777;28;20386;-83
2021/03/22 04:19:03;;;;;;;11.63;2.35;;;18.00;99.90;;;;;;5076706;28;20394;-86
2021/03/22 04:21:32;;;;;;;8.95;2.00;;;17.90;99.90;;;;;;5069514;28;20584;-87
2021/03/22 04:24:04;;;;;;;15.30;2.88;;;17.90;99.90;;;;;;5069735;28;20748;-85
2021/03/22 04:26:31;;;;;;;12.73;2.63;;;17.90;99.90;;;;;;5068488;28;20366;-85
2021/03/22 04:28:58;;;;;;;10.80;1.92;;;17.90;99.90;;;;;;5069409;28;20393;-85
2021/03/22 04:31:28;;;;;;;11.07;2.67;;;17.80;99.90;;;;;;5069084;28;20406;-87
2021/03/22 04:33:56;;;;;;;11.32;1.95;;;17.70;99.90;;;;;;5069335;28;20431;-85
2021/03/22 04:36:27;;;;;;;11.32;2.22;;;17.60;99.90;;;;;;5068267;28;20896;-86
2021/03/22 04:38:54;;;;;;;9.32;1.95;;;17.60;99.90;;;;;;5069035;28;20457;-86
2021/03/22 04:41:25;;;;;;;10.38;1.98;;;17.60;99.90;;;;;;5068932;28;20394;-84
2021/03/22 04:43:53;;;;;;;11.27;2.08;;;17.60;99.90;;;;;;5057828;28;20381;-85
2021/03/22 04:46:21;;;;;;;13.00;2.40;;;17.60;99.90;;;;;;5068831;28;20849;-85
2021/03/22 04:48:48;;;;;;;9.05;2.03;;;17.60;99.90;;;;;;5068496;28;20408;-83
2021/03/22 04:51:15;;;;;;;11.57;2.00;;;17.50;99.90;;;;;;5068928;28;20377;-85
2021/03/22 04:53:42;;;;;;;13.77;2.50;;;17.50;99.90;;;;;;5069782;28;20374;-86
2021/03/22 04:56:09;;;;;;;12.98;2.55;;;17.50;99.90;;;;;;5069588;28;20432;-85
2021/03/22 04:58:37;;;;;;;11.48;2.17;;;17.50;99.90;;;;;;5067946;28;20435;-85
2021/03/22 05:01:08;;;;;;;10.40;2.15;;;17.50;99.90;;;;;;5068674;28;20839;-86
2021/03/22 05:03:35;;;;;;;10.82;2.53;;;17.50;99.90;;;;;;5068550;28;20752;-86
2021/03/22 05:06:04;;;;;;;10.73;1.85;;;17.50;99.90;;;;;;5081398;28;20372;-86
2021/03/22 05:08:31;;;;;;;9.23;1.75;;;17.50;99.90;;;;;;5071236;28;20401;-85
2021/03/22 05:10:59;;;;;;;14.88;2.38;;;17.40;99.90;;;;;;5068520;28;20378;-86
2021/03/22 05:13:28;;;;;;;10.45;2.35;;;17.40;99.90;;;;;;5084871;28;20376;-85
2021/03/22 05:15:56;;;;;;;9.65;2.05;;;17.30;99.90;;;;;;5088992;28;20871;-88
2021/03/22 05:18:26;;;;;;;12.90;2.45;;;17.30;99.90;;;;;;5071525;28;20382;-86
2021/03/22 05:21:01;;;;;;;9.63;2.03;;;17.30;99.90;;;;;;5079763;28;20925;-85
2021/03/22 05:23:29;;;;;;;13.57;2.30;;;17.20;99.90;;;;;;5080207;28;20382;-85
2021/03/22 05:25:57;;;;;;;10.27;2.15;;;17.20;99.90;;;;;;5065011;28;20430;-85
2021/03/22 05:28:26;;;;;;;13.38;2.60;;;17.20;99.90;;;;;;5048414;28;20415;-84
2021/03/22 05:30:53;;;;;;;13.90;2.65;;;17.10;99.90;;;;;;5048526;28;20467;-86
2021/03/22 05:33:22;;;;;;;9.75;2.28;;;17.20;99.90;;;;;;5048979;28;20388;-85
2021/03/22 05:35:51;;;;;;;9.85;2.10;;;17.20;99.90;;;;;;5048297;28;20387;-85
2021/03/22 05:38:19;;;;;;;10.85;2.45;;;17.20;99.90;;;;;;5055370;28;20397;-86
2021/03/22 05:40:59;;;;;;;11.68;2.13;;;17.20;99.90;;;;;;5071472;28;20461;-85
2021/03/22 05:43:41;;;;;;;10.27;2.45;;;17.10;99.90;;;;;;5072375;28;20388;-86
2021/03/22 05:46:23;;;;;;;12.00;2.58;;;17.20;99.90;;;;;;5071867;28;20378;-83
2021/03/22 05:49:21;;;;;;;12.13;2.42;;;17.10;99.90;;;;;;5052245;28;20419;-87
2021/03/22 05:52:03;;;;;;;15.80;2.25;;;17.10;99.90;;;;;;5052128;28;20364;-84
2021/03/22 05:55:00;;;;;;;8.85;2.10;;;17.00;99.90;;;;;;5051068;28;20572;-85
2021/03/22 05:57:52;;;;;;;10.23;2.00;;;17.00;99.90;;;;;;5052015;28;20419;-84
2021/03/22 06:00:37;;;;;;;9.13;1.77;;;17.00;99.90;;;;;;5058531;28;20409;-86
2021/03/22 06:03:10;;;;;;;10.97;2.10;;;16.90;99.90;;;;;;5072111;28;20865;-87
2021/03/22 06:06:10;;;;;;;12.70;2.10;;;16.90;99.90;;;;;;5070837;28;20492;-88
2021/03/22 06:08:46;;;;;;;10.90;2.30;;;16.90;99.90;;;;;;5071669;28;20406;-86
2021/03/22 06:11:35;;;;;;;9.23;1.92;;;16.80;99.90;;;;;;5072274;28;20370;-88
2021/03/22 06:14:31;;;;;;;12.23;2.10;;;16.80;99.90;;;;;;5073462;28;20378;-87
2021/03/22 06:17:17;;;;;;;8.90;1.83;;;16.90;99.90;;;;;;5071093;28;20900;-88
2021/03/22 06:19:54;;;;;;;12.27;2.70;;;16.80;99.90;;;;;;5071497;28;20405;-85
2021/03/22 06:22:31;;;;;;;11.32;2.47;;;16.80;99.90;;;;;;5071357;28;20408;-87
2021/03/22 06:25:02;;;;;;;13.07;2.60;;;16.90;99.90;;;;;;5067390;28;20398;-86
2021/03/22 06:27:29;;;;;;;9.00;2.05;;;16.80;99.90;;;;;;5063871;28;20394;-90
2021/03/22 06:29:56;;;;;;;15.82;2.28;;;16.80;99.90;;;;;;5063181;28;20431;-89
2021/03/22 06:32:55;;;;;;;12.85;2.10;;;16.80;99.90;;;;;;5056681;28;20371;-87
2021/03/22 06:35:26;;;;;;;18.15;2.40;;;16.80;99.90;;;;;;5055271;28;20417;-87
2021/03/22 06:37:53;;;;;;;11.00;2.50;;;16.70;99.90;;;;;;5060850;28;20384;-87
2021/03/22 06:40:25;;;;;;;16.38;2.47;;;16.70;99.90;;;;;;5051703;28;20466;-90
2021/03/22 06:43:19;;;;;;;9.60;2.17;;;16.70;99.90;;;;;;5049815;28;20418;-86
2021/03/22 06:45:50;;;;;;;13.35;2.58;;;16.80;99.90;;;;;;5050019;28;20400;-86
2021/03/22 06:48:25;;;;;;;10.82;2.25;;;16.80;99.90;;;;;;5035205;28;20412;-86
2021/03/22 06:51:14;;;;;;;19.90;2.50;;;16.80;99.90;;;;;;5051263;28;20388;-86
2021/03/22 06:53:48;;;;;;;13.73;2.47;;;16.80;99.90;;;;;;5048476;28;20403;-88
2021/03/22 06:56:24;;;;;;;15.15;2.65;;;16.80;99.90;;;;;;5054814;28;20498;-89
2021/03/22 06:59:17;;;;;;;13.25;2.45;;;16.80;99.90;;;;;;5049961;28;20478;-88
2021/03/22 07:01:46;;;;;;;13.68;2.90;;;16.80;99.90;;;;;;5012948;28;20771;-87
2021/03/22 07:04:25;;;;;;;14.50;2.33;;;16.80;99.90;;;;;;5040911;28;20384;-86
2021/03/22 07:07:13;;;;;;;12.98;2.50;;;16.80;99.90;;;;;;5048438;28;20751;-85
2021/03/22 07:09:45;;;;;;;15.63;2.77;;;16.80;99.90;;;;;;5037388;28;20427;-86
2021/03/22 07:12:44;;;;;;;14.77;2.90;;;16.80;99.90;;;;;;5043889;28;20391;-84
2021/03/22 07:15:13;;;;;;;14.60;3.40;;;16.90;99.90;;;;;;5019666;28;20400;-88
2021/03/22 07:17:41;;;;;;;10.97;2.57;;;16.80;99.90;;;;;;5052647;28;20969;-87
2021/03/22 07:20:19;;;;;;;18.20;2.88;;;16.90;99.90;;;;;;5048635;28;20398;-87
2021/03/22 07:22:46;;;;;;;14.50;2.80;;;16.90;99.90;;;;;;5051505;28;20426;-87
2021/03/22 07:25:19;;;;;;;13.88;2.85;;;16.90;99.90;;;;;;5034075;28;20410;-87
2021/03/22 07:27:53;;;;;;;10.02;2.40;;;16.90;99.90;;;;;;5049831;28;20762;-86
2021/03/22 07:30:26;;;;;;;10.10;2.10;;;16.90;99.90;;;;;;5050178;28;21148;-87
2021/03/22 07:33:01;;;;;;;12.25;2.72;;;16.90;99.90;;;;;;5043674;28;20392;-86
2021/03/22 07:35:54;;;;;;;16.30;2.97;;;16.90;99.90;;;;;;5047819;28;20972;-83
2021/03/22 07:38:45;;;;;;;14.32;2.88;;;16.90;99.90;;;;;;5052986;28;20872;-84
2021/03/22 07:41:35;;;;;;;14.52;2.78;;;16.90;99.90;;;;;;5047918;28;20430;-84
2021/03/22 07:44:13;;;;;;;12.38;2.67;;;16.90;99.90;;;;;;5032500;28;20385;-86
2021/03/22 07:47:05;;;;;;;13.85;2.83;;;16.90;99.90;;;;;;5035758;28;20469;-86
2021/03/22 07:50:13;;;;;;;13.13;2.83;;;16.90;99.90;;;;;;5049624;28;20594;-85
2021/03/22 07:52:43;;;;;;;106.93;18.45;;;16.90;99.90;;;;;;5008520;28;20412;-85
2021/03/22 07:55:25;;;;;;;12.98;2.65;;;16.90;99.90;;;;;;5047490;28;20403;-84
2021/03/22 07:57:55;;;;;;;12.23;2.67;;;16.90;99.90;;;;;;5047711;28;20505;-85
2021/03/22 08:00:57;;;;;;;12.25;2.60;;;16.80;99.90;;;;;;5045459;28;20402;-86
2021/03/22 08:03:43;;;;;;;11.40;2.40;;;16.80;99.90;;;;;;5042548;28;20392;-86
2021/03/22 08:06:21;;;;;;;13.02;2.05;;;16.80;99.90;;;;;;5048997;28;20391;-84
2021/03/22 08:08:58;;;;;;;9.55;2.30;;;16.80;99.90;;;;;;5050693;28;20408;-85
2021/03/22 08:11:34;;;;;;;10.20;2.30;;;16.70;99.90;;;;;;5047759;28;20387;-87
2021/03/22 08:14:29;;;;;;;12.52;2.63;;;16.80;99.90;;;;;;5056434;28;20395;-84
2021/03/22 08:17:17;;;;;;;13.15;2.40;;;16.70;99.90;;;;;;5057278;28;20428;-87
2021/03/22 08:19:47;;;;;;;11.82;2.47;;;16.70;99.90;;;;;;5054192;28;20452;-87
2021/03/22 08:22:26;;;;;;;11.82;2.03;;;16.70;99.90;;;;;;5050217;28;20391;-87
2021/03/22 08:25:12;;;;;;;13.25;2.58;;;16.70;99.90;;;;;;5044036;28;20406;-87
2021/03/22 08:27:46;;;;;;;11.25;2.50;;;16.70;99.90;;;;;;5048481;28;20414;-86
2021/03/22 08:30:49;;;;;;;10.57;2.13;;;16.70;99.90;;;;;;5047312;28;20431;-85
2021/03/22 08:33:31;;;;;;;12.63;2.42;;;16.70;99.90;;;;;;5051031;28;20739;-84
2021/03/22 08:36:06;;;;;;;13.07;2.25;;;16.60;99.90;;;;;;5049996;28;20406;-85
2021/03/22 08:39:08;;;;;;;9.05;2.13;;;16.70;99.90;;;;;;5063199;28;20961;-85
2021/03/22 08:41:58;;;;;;;13.85;2.47;;;16.60;99.90;;;;;;5039447;28;20388;-84
2021/03/22 08:44:54;;;;;;;12.53;2.40;;;16.60;99.90;;;;;;5070169;28;20451;-84
2021/03/22 08:47:43;;;;;;;9.65;2.15;;;16.60;99.90;;;;;;5061622;28;20421;-84
2021/03/22 08:50:22;;;;;;;11.67;2.43;;;16.60;99.90;;;;;;5064700;28;20389;-84
2021/03/22 08:52:58;;;;;;;10.75;2.55;;;16.50;99.90;;;;;;5065541;28;20390;-85
2021/03/22 08:56:01;;;;;;;9.68;2.15;;;16.50;99.90;;;;;;5061763;28;20390;-85
2021/03/22 08:58:46;;;;;;;15.20;2.45;;;16.50;99.90;;;;;;5055619;28;21069;-84
2021/03/22 09:01:30;;;;;;;11.93;2.05;;;16.50;99.90;;;;;;5062800;28;20968;-85
2021/03/22 09:04:13;;;;;;;10.20;2.05;;;16.50;99.90;;;;;;5064999;28;20779;-84
2021/03/22 09:07:10;;;;;;;10.90;2.22;;;16.50;99.90;;;;;;5065175;28;20401;-84
2021/03/22 09:09:43;;;;;;;8.82;2.00;;;16.40;99.90;;;;;;5063984;28;20877;-83
2021/03/22 09:12:30;;;;;;;12.25;2.35;;;16.50;99.90;;;;;;5066374;28;20828;-84
2021/03/22 09:14:58;;;;;;;9.80;2.20;;;16.40;99.90;;;;;;5059110;28;20487;-84
2021/03/22 09:17:49;;;;;;;13.27;2.63;;;16.40;99.90;;;;;;5068902;28;21252;-83
2021/03/22 09:20:19;;;;;;;9.23;2.17;;;16.40;99.90;;;;;;5068998;28;20424;-83
2021/03/22 09:23:10;;;;;;;9.88;2.00;;;16.30;99.90;;;;;;5069494;28;20415;-83
2021/03/22 09:25:57;;;;;;;11.30;2.25;;;16.40;99.90;;;;;;5069719;28;20457;-82
2021/03/22 09:28:29;;;;;;;13.27;2.23;;;16.40;99.90;;;;;;5070104;28;21247;-83
2021/03/22 09:31:24;;;;;;;14.73;2.25;;;16.40;99.90;;;;;;5068907;28;20386;-83
2021/03/22 09:33:59;;;;;;;11.85;1.92;;;16.50;99.90;;;;;;5068220;28;20434;-84
2021/03/22 09:36:40;;;;;;;15.80;2.20;;;16.50;99.90;;;;;;5069122;28;20405;-83
2021/03/22 09:39:19;;;;;;;16.23;2.30;;;16.50;99.90;;;;;;5069026;28;20432;-83
2021/03/22 09:42:12;;;;;;;13.23;2.40;;;16.50;99.90;;;;;;5069237;28;20374;-84
2021/03/22 09:44:59;;;;;;;8.52;2.42;;;16.40;99.90;;;;;;5066688;28;21019;-84
2021/03/22 09:47:33;;;;;;;14.18;2.40;;;16.40;99.90;;;;;;5064587;28;20417;-85
2021/03/22 09:50:00;;;;;;;13.02;2.33;;;16.40;99.90;;;;;;5068742;28;20393;-85
2021/03/22 09:52:29;;;;;;;12.88;2.90;;;16.50;99.90;;;;;;5049780;28;20380;-85
2021/03/22 09:54:59;;;;;;;10.95;1.98;;;16.50;99.90;;;;;;5058428;28;20382;-84
2021/03/22 09:57:41;;;;;;;17.17;2.40;;;16.50;99.90;;;;;;5072466;28;20382;-83
2021/03/22 10:00:28;;;;;;;13.98;2.70;;;16.40;99.90;;;;;;5090140;28;20429;-84
2021/03/22 10:03:19;;;;;;;14.45;2.70;;;16.50;99.90;;;;;;5090756;28;20433;-84
2021/03/22 10:05:46;;;;;;;13.45;2.72;;;16.50;99.90;;;;;;5053493;28;20393;-83
2021/03/22 10:08:22;;;;;;;13.73;2.42;;;16.50;99.90;;;;;;5059604;28;20458;-85
2021/03/22 10:10:54;;;;;;;13.00;2.63;;;16.50;99.90;;;;;;5067502;28;20419;-84
2021/03/22 10:13:29;;;;;;;12.63;2.80;;;16.50;99.90;;;;;;5070540;28;20794;-87
2021/03/22 10:16:02;;;;;;;13.95;2.47;;;16.50;99.90;;;;;;5068943;28;20485;-85
2021/03/22 10:18:55;;;;;;;13.57;2.67;;;16.50;99.90;;;;;;5047846;28;20474;-85
2021/03/22 10:21:22;;;;;;;15.68;2.28;;;16.50;99.90;;;;;;5032258;28;20387;-85
2021/03/22 10:24:04;;;;;;;14.27;2.55;;;16.50;99.90;;;;;;5057466;28;20394;-85
2021/03/22 10:26:41;;;;;;;10.70;2.38;;;16.50;99.90;;;;;;5069011;28;20846;-86
2021/03/22 10:29:21;;;;;;;11.25;2.33;;;16.50;99.90;;;;;;5068387;28;20419;-85
2021/03/22 10:31:58;;;;;;;13.87;2.60;;;16.50;99.90;;;;;;5068418;28;20370;-85
2021/03/22 10:34:27;;;;;;;18.02;2.90;;;16.50;99.90;;;;;;5068188;28;20397;-85
2021/03/22 10:36:55;;;;;;;14.45;2.20;;;16.50;99.90;;;;;;5065893;28;21241;-84
2021/03/22 10:39:34;;;;;;;10.45;2.17;;;16.50;99.90;;;;;;5050122;28;21716;-84
2021/03/22 10:42:02;;;;;;;10.77;2.22;;;16.50;99.90;;;;;;5067648;28;20379;-82
2021/03/22 10:44:37;;;;;;;11.98;2.20;;;16.50;99.90;;;;;;5048182;28;20383;-84
2021/03/22 10:47:11;;;;;;;10.82;2.35;;;16.50;99.90;;;;;;5047915;28;20428;-84
2021/03/22 10:49:39;;;;;;;10.40;2.08;;;16.50;99.90;;;;;;5029634;28;20406;-83
2021/03/22 10:52:21;;;;;;;11.60;2.22;;;16.50;99.90;;;;;;5048373;28;20385;-82
2021/03/22 10:54:49;;;;;;;12.10;2.05;;;16.50;99.90;;;;;;5047655;28;21191;-85
2021/03/22 10:57:24;;;;;;;8.95;2.03;;;16.50;99.90;;;;;;5051418;28;20577;-83
2021/03/22 10:59:55;;;;;;;12.40;2.05;;;16.50;99.90;;;;;;5047580;28;20404;-84
2021/03/22 11:02:56;;;;;;;14.35;1.95;;;16.40;99.90;;;;;;5035643;28;20396;-83
2021/03/22 11:05:48;;;;;;;14.35;2.25;;;16.50;99.90;;;;;;5048000;28;20382;-83
2021/03/22 11:08:29;;;;;;;10.27;2.08;;;16.40;99.90;;;;;;5047260;28;20454;-84
2021/03/22 11:11:04;;;;;;;10.27;2.15;;;16.40;99.90;;;;;;5046051;28;20793;-84
2021/03/22 11:13:35;;;;;;;12.77;2.65;;;16.50;99.90;;;;;;5048001;28;20475;-84
2021/03/22 11:16:04;;;;;;;14.55;2.22;;;16.50;99.90;;;;;;5048042;28;20356;-85
2021/03/22 11:18:32;;;;;;;11.57;2.20;;;16.50;99.90;;;;;;5032254;28;20390;-84
2021/03/22 11:21:00;;;;;;;12.18;2.28;;;16.40;99.90;;;;;;5034182;28;20374;-83
2021/03/22 11:23:42;;;;;;;13.32;2.47;;;16.40;99.90;;;;;;5055161;28;20807;-84
2021/03/22 11:26:12;;;;;;;11.10;2.10;;;16.40;99.90;;;;;;5054395;28;20364;-84
2021/03/22 11:28:39;;;;;;;13.38;2.50;;;16.40;99.90;;;;;;5050174;28;20407;-84
2021/03/22 11:31:17;;;;;;;10.40;2.00;;;16.40;99.90;;;;;;5051257;28;20396;-85
2021/03/22 11:34:01;;;;;;;11.70;2.00;;;16.40;99.90;;;;;;5054464;28;20429;-85
2021/03/22 11:36:41;;;;;;;14.32;2.40;;;16.40;99.90;;;;;;5066978;28;20512;-84
2021/03/22 11:39:14;;;;;;;13.55;2.13;;;16.40;99.90;;;;;;5034335;28;20874;-84
2021/03/22 11:42:05;;;;;;;11.90;1.80;;;16.40;99.90;;;;;;5043489;28;20384;-84
2021/03/22 11:44:39;;;;;;;11.02;1.85;;;16.40;99.90;;;;;;5050392;28;20493;-84
2021/03/22 11:47:26;;;;;;;11.88;1.95;;;16.30;99.90;;;;;;5051727;28;20398;-83
2021/03/22 11:49:55;;;;;;;11.03;1.90;;;16.30;99.90;;;;;;5050613;28;21096;-83
2021/03/22 11:52:26;;;;;;;12.77;2.00;;;16.30;99.90;;;;;;5045035;28;20465;-83
2021/03/22 11:58:43;;;;;;;12.05;2.15;;;16.30;99.90;;;;;;5013840;28;20401;-84
2021/03/22 12:01:14;;;;;;;11.63;2.10;;;16.30;99.90;;;;;;5071444;28;20410;-83
2021/03/22 12:03:41;;;;;;;11.23;1.88;;;16.20;99.90;;;;;;5061759;28;20372;-85
2021/03/22 12:06:12;;;;;;;10.35;1.77;;;16.20;99.90;;;;;;5047230;28;20392;-84
2021/03/22 12:08:45;;;;;;;10.00;1.80;;;16.30;99.90;;;;;;5058110;28;20416;-84
2021/03/22 12:11:23;;;;;;;10.85;1.80;;;16.20;99.90;;;;;;5036180;28;20399;-83
2021/03/22 12:13:56;;;;;;;10.98;2.00;;;16.30;99.90;;;;;;5047889;28;20396;-83
2021/03/22 12:16:31;;;;;;;10.77;1.88;;;16.30;99.90;;;;;;5050342;28;20398;-82
2021/03/22 12:19:03;;;;;;;10.38;1.95;;;16.30;99.90;;;;;;5052763;28;20390;-83
2021/03/22 12:21:30;;;;;;;10.90;2.10;;;16.30;99.90;;;;;;5049797;28;20397;-82
2021/03/22 12:24:00;;;;;;;10.85;1.63;;;16.30;99.90;;;;;;5067914;28;20379;-83
2021/03/22 12:26:29;;;;;;;10.50;1.80;;;16.30;99.90;;;;;;5062137;28;20432;-83
2021/03/22 12:28:57;;;;;;;12.05;1.55;;;16.30;99.90;;;;;;5062451;28;20508;-83
2021/03/22 12:31:26;;;;;;;10.95;1.98;;;16.30;99.90;;;;;;5061111;28;20399;-83
2021/03/22 12:33:55;;;;;;;16.20;2.20;;;16.30;99.90;;;;;;5048313;28;20519;-83
2021/03/22 12:36:22;;;;;;;12.65;2.13;;;16.30;99.90;;;;;;5055429;28;20438;-82
2021/03/22 12:38:49;;;;;;;15.05;2.10;;;16.30;99.90;;;;;;5085378;28;20770;-83
2021/03/22 12:41:29;;;;;;;10.45;1.73;;;16.30;99.90;;;;;;5083353;28;20400;-83
2021/03/22 12:44:03;;;;;;;13.60;2.38;;;16.30;99.90;;;;;;5090104;28;20463;-83
2021/03/22 12:46:30;;;;;;;18.17;2.10;;;16.40;99.90;;;;;;5083840;28;20380;-83
2021/03/22 12:48:57;;;;;;;14.27;2.25;;;16.30;99.90;;;;;;5078951;28;20462;-83
2021/03/22 12:51:24;;;;;;;13.38;2.38;;;16.40;99.90;;;;;;5086334;28;20808;-84
2021/03/22 12:53:51;;;;;;;11.70;2.40;;;16.40;99.90;;;;;;5085894;28;20395;-84
2021/03/22 12:56:24;;;;;;;17.77;2.30;;;16.50;99.90;;;;;;5087218;28;20528;-85
2021/03/22 12:58:54;;;;;;;17.67;2.43;;;16.40;99.90;;;;;;5053376;28;20368;-85
2021/03/22 13:01:21;;;;;;;17.00;2.85;;;16.40;99.90;;;;;;5066201;28;20389;-85
2021/03/22 13:03:48;;;;;;;17.95;2.63;;;16.40;99.90;;;;;;5073531;28;20358;-85
2021/03/22 13:06:15;;;;;;;14.52;2.20;;;16.40;99.90;;;;;;5086428;28;20705;-85
2021/03/22 13:08:42;;;;;;;15.15;2.28;;;16.50;99.90;;;;;;5088338;28;20409;-86
2021/03/22 13:11:11;;;;;;;14.65;2.15;;;16.50;99.90;;;;;;5081762;28;20455;-86
2021/03/22 13:13:38;;;;;;;15.70;2.80;;;16.40;99.90;;;;;;5093625;28;20891;-86
2021/03/22 13:16:05;;;;;;;15.10;2.22;;;16.50;99.90;;;;;;5086844;28;20792;-85
2021/03/22 13:18:35;;;;;;;20.23;2.55;;;16.50;99.90;;;;;;5087459;28;20756;-85
2021/03/22 13:21:08;;;;;;;16.15;2.33;;;16.50;99.90;;;;;;5066164;28;20435;-86